Time;durP1;ratioP1;P1;durP2;ratioP2;P2;SDS_P1;SDS_P2;PMS_P1;PMS_P2;Temp;Humidity;BMP_temperature;BMP_pressure;BME280_temperature;BME280_humidity;BME280_pressure;Samples;Min_cycle;Max_cycle;Signal;HPM_P1;HPM_P2
2023/11/07 00:01:37;;;;;;;0.93;0.85;;;;;;;8.34;86.68;98704.16;5044128;28;20029;-71
2023/11/07 00:04:02;;;;;;;1.60;1.00;;;;;;;8.32;86.49;98688.69;5045229;28;20022;-71
2023/11/07 00:06:28;;;;;;;2.53;1.02;;;;;;;8.33;86.71;98690.38;5043883;28;20022;-72
2023/11/07 00:08:53;;;;;;;0.70;0.70;;;;;;;8.34;86.54;98701.56;5045134;28;20021;-72
2023/11/07 00:11:19;;;;;;;1.10;1.00;;;;;;;8.25;86.52;98692.28;5045115;28;20094;-71
2023/11/07 00:13:44;;;;;;;1.13;0.93;;;;;;;8.33;86.87;98705.88;5045290;28;20100;-70
2023/11/07 00:16:11;;;;;;;1.70;0.70;;;;;;;8.35;86.68;98709.28;5045037;28;20026;-71
2023/11/07 00:18:36;;;;;;;3.15;1.23;;;;;;;8.36;86.71;98718.72;5044596;28;20025;-72
2023/11/07 00:21:01;;;;;;;1.80;0.93;;;;;;;8.37;86.81;98717.00;5044956;28;20088;-71
2023/11/07 00:23:27;;;;;;;8.65;1.58;;;;;;;8.35;86.55;98717.03;5044853;28;20025;-71
2023/11/07 00:25:53;;;;;;;0.95;0.90;;;;;;;8.34;86.77;98712.72;5045011;28;20032;-71
2023/11/07 00:28:19;;;;;;;0.93;0.90;;;;;;;8.32;86.61;98722.28;5044324;28;20052;-72
2023/11/07 00:30:45;;;;;;;0.82;0.80;;;;;;;8.36;86.48;98725.63;5026871;28;20027;-71
2023/11/07 00:33:10;;;;;;;1.05;0.98;;;;;;;8.34;86.79;98723.06;5044584;28;20288;-71
2023/11/07 00:35:36;;;;;;;0.95;0.88;;;;;;;8.28;86.56;98716.34;5044523;28;20024;-72
2023/11/07 00:38:04;;;;;;;1.20;1.00;;;;;;;8.33;86.58;98731.72;5044739;28;20025;-71
2023/11/07 00:40:30;;;;;;;0.65;0.63;;;;;;;8.29;86.62;98724.97;5044551;28;20029;-71
2023/11/07 00:42:55;;;;;;;0.60;0.60;;;;;;;8.27;86.61;98727.59;5044616;28;20029;-71
2023/11/07 00:45:21;;;;;;;0.68;0.68;;;;;;;8.29;86.52;98724.97;5044630;28;20028;-72
2023/11/07 00:47:46;;;;;;;0.60;0.60;;;;;;;8.26;86.62;98735.38;5044503;28;20032;-71
2023/11/07 00:50:12;;;;;;;1.15;1.00;;;;;;;8.24;86.68;98729.41;5044535;28;20021;-71
2023/11/07 00:52:40;;;;;;;1.08;0.98;;;;;;;8.26;86.51;98736.22;5044495;28;20017;-71
2023/11/07 00:55:07;;;;;;;0.93;0.82;;;;;;;8.25;86.50;98738.84;5044547;28;20033;-71
2023/11/07 00:57:32;;;;;;;1.15;0.90;;;;;;;8.27;86.74;98740.50;5044538;28;20052;-71
2023/11/07 00:59:58;;;;;;;1.33;0.82;;;;;;;8.28;86.54;98743.91;5044526;28;20081;-72
2023/11/07 01:02:23;;;;;;;0.93;0.82;;;;;;;8.29;86.56;98746.47;5044366;28;20026;-72
2023/11/07 01:04:49;;;;;;;1.10;1.00;;;;;;;8.29;86.68;98750.81;5044312;28;20021;-71
2023/11/07 01:07:14;;;;;;;2.35;0.70;;;;;;;8.29;86.45;98751.63;5044005;28;20049;-72
2023/11/07 01:09:39;;;;;;;2.35;1.15;;;;;;;8.34;86.43;98748.09;5026551;28;20036;-71
2023/11/07 01:12:05;;;;;;;4.43;1.48;;;;;;;8.31;86.39;98754.19;5044393;28;20076;-72
2023/11/07 01:14:31;;;;;;;0.98;0.95;;;;;;;8.33;86.40;98756.72;5044606;28;20037;-72
2023/11/07 01:16:56;;;;;;;1.15;0.80;;;;;;;8.28;86.27;98754.25;5044068;28;20036;-71
2023/11/07 01:19:22;;;;;;;2.67;0.85;;;;;;;8.30;86.37;98760.25;5042908;28;20089;-71
2023/11/07 01:21:48;;;;;;;1.30;1.00;;;;;;;8.29;86.51;98761.16;5044176;28;20045;-71
2023/11/07 01:24:13;;;;;;;1.15;1.05;;;;;;;8.27;86.66;98758.59;5042949;28;20026;-72
2023/11/07 01:26:39;;;;;;;0.95;0.88;;;;;;;8.29;86.55;98763.75;5044018;28;20021;-71
2023/11/07 01:29:04;;;;;;;1.10;1.00;;;;;;;8.29;86.69;98769.75;5044137;28;20108;-72
2023/11/07 01:31:29;;;;;;;1.00;0.90;;;;;;;8.28;86.61;98770.63;5044453;28;20108;-71
2023/11/07 01:33:56;;;;;;;1.10;1.00;;;;;;;8.26;86.63;98774.16;5026540;28;20044;-71
2023/11/07 01:36:21;;;;;;;1.20;0.95;;;;;;;8.30;86.81;98780.94;5044222;28;20040;-71
2023/11/07 01:38:47;;;;;;;1.08;0.85;;;;;;;8.29;86.68;98781.84;5044187;28;20112;-72
2023/11/07 01:41:13;;;;;;;2.15;1.33;;;;;;;8.28;86.65;98778.41;5045614;28;20017;-72
2023/11/07 01:43:39;;;;;;;0.65;0.65;;;;;;;8.29;86.83;98781.84;5030164;28;20495;-72
2023/11/07 01:46:06;;;;;;;1.48;1.35;;;;;;;8.28;86.82;98786.16;5030232;28;20348;-71
2023/11/07 01:48:31;;;;;;;1.77;1.08;;;;;;;8.27;86.97;98792.22;5047610;28;20517;-72
2023/11/07 01:50:57;;;;;;;3.67;1.70;;;;;;;8.30;86.76;98784.38;5047685;28;20085;-71
2023/11/07 01:53:24;;;;;;;0.73;0.73;;;;;;;8.33;86.89;98792.94;5047572;28;20536;-71
2023/11/07 01:55:49;;;;;;;2.05;1.20;;;;;;;8.29;87.10;98784.44;5047695;28;20030;-71
2023/11/07 01:58:16;;;;;;;1.42;1.33;;;;;;;8.27;86.92;98778.44;5047389;28;20064;-72
2023/11/07 02:00:43;;;;;;;7.97;1.25;;;;;;;8.34;86.93;98781.72;5029739;28;20025;-71
2023/11/07 02:03:09;;;;;;;2.53;1.27;;;;;;;8.36;86.46;98775.59;5046982;28;20082;-71
2023/11/07 02:05:34;;;;;;;2.70;1.27;;;;;;;8.36;86.32;98788.53;5060225;28;20025;-72
2023/11/07 02:08:00;;;;;;;1.60;1.35;;;;;;;8.34;86.54;98787.72;5049133;28;20040;-71
2023/11/07 02:10:25;;;;;;;0.85;0.85;;;;;;;8.33;86.77;98790.34;5067718;28;20029;-71
2023/11/07 02:12:51;;;;;;;2.33;1.05;;;;;;;8.32;86.37;98779.19;5067537;28;20044;-72
2023/11/07 02:15:26;;;;;;;0.50;0.50;;;;;;;8.26;86.39;98784.50;5067093;28;20021;-72
2023/11/07 02:17:51;;;;;;;0.65;0.65;;;;;;;8.21;86.36;98783.75;5067095;28;20027;-72
2023/11/07 02:20:17;;;;;;;0.77;0.68;;;;;;;8.16;86.18;98774.38;5066994;28;20025;-71
2023/11/07 02:22:47;;;;;;;1.60;1.23;;;;;;;8.07;86.34;98779.75;5049293;28;20032;-71
2023/11/07 02:25:14;;;;;;;2.47;0.77;;;;;;;8.08;86.46;98786.66;5067155;28;20017;-72
2023/11/07 02:27:40;;;;;;;3.10;1.13;;;;;;;8.01;86.36;98788.53;5066824;28;20024;-72
2023/11/07 02:30:10;;;;;;;2.35;1.63;;;;;;;8.01;86.41;98785.09;5067136;28;20032;-71
2023/11/07 02:32:36;;;;;;;1.52;0.82;;;;;;;8.01;86.51;98793.69;5066966;28;20021;-71
2023/11/07 02:35:01;;;;;;;1.67;1.38;;;;;;;8.05;86.73;98791.91;5048869;28;20093;-70
2023/11/07 02:37:26;;;;;;;1.60;1.50;;;;;;;8.02;86.43;98790.22;5066900;28;20025;-71
2023/11/07 02:39:52;;;;;;;2.13;1.10;;;;;;;8.08;86.27;98794.41;5066857;28;20088;-73
2023/11/07 02:42:18;;;;;;;1.27;1.17;;;;;;;8.06;86.43;98780.66;5066817;28;20036;-71
2023/11/07 02:44:43;;;;;;;1.92;1.40;;;;;;;8.06;86.52;98791.00;5066689;28;20074;-72
2023/11/07 02:47:08;;;;;;;9.48;1.63;;;;;;;8.03;86.29;98781.59;5066624;28;20085;-72
2023/11/07 02:49:33;;;;;;;1.40;1.30;;;;;;;8.06;86.18;98784.09;5066498;28;20032;-71
2023/11/07 02:51:59;;;;;;;1.80;1.00;;;;;;;8.06;86.34;98789.28;5066116;28;20028;-72
2023/11/07 02:54:25;;;;;;;1.42;1.20;;;;;;;8.06;86.41;98780.66;5048926;28;20023;-71
2023/11/07 02:56:50;;;;;;;0.88;0.88;;;;;;;8.06;86.30;98780.66;5066539;28;20024;-71
2023/11/07 02:59:16;;;;;;;11.63;1.30;;;;;;;8.03;86.32;98773.84;5066469;28;20029;-71
2023/11/07 03:01:41;;;;;;;2.90;1.63;;;;;;;8.12;86.23;98788.25;5048217;28;20032;-71
2023/11/07 03:04:06;;;;;;;1.58;1.25;;;;;;;8.16;85.93;98786.47;5066284;28;20020;-71
2023/11/07 03:06:32;;;;;;;6.13;0.95;;;;;;;8.19;85.77;98796.72;5048373;28;20044;-71
2023/11/07 03:08:58;;;;;;;2.00;1.23;;;;;;;8.18;85.91;98798.44;5066204;28;20043;-71
2023/11/07 03:11:23;;;;;;;0.90;0.90;;;;;;;8.12;86.07;98801.19;5066317;28;20020;-72
2023/11/07 03:13:48;;;;;;;0.85;0.85;;;;;;;8.10;86.03;98800.38;5047952;28;20028;-72
2023/11/07 03:16:14;;;;;;;0.90;0.80;;;;;;;8.06;86.49;98796.16;5066083;28;20021;-72
2023/11/07 03:18:39;;;;;;;8.38;1.63;;;;;;;8.06;86.60;98807.38;5065949;28;20028;-71
2023/11/07 03:21:07;;;;;;;2.47;1.70;;;;;;;8.01;86.85;98804.03;5065798;28;20025;-72
2023/11/07 03:23:33;;;;;;;2.53;1.10;;;;;;;7.97;86.98;98796.41;5047904;28;20078;-71
2023/11/07 03:26:00;;;;;;;2.92;1.42;;;;;;;7.96;87.23;98797.25;5065917;28;20476;-71
2023/11/07 03:28:25;;;;;;;2.08;1.20;;;;;;;7.96;87.31;98794.69;5065603;28;20055;-71
2023/11/07 03:30:51;;;;;;;1.60;1.30;;;;;;;7.97;87.07;98796.41;5065826;28;20021;-70
2023/11/07 03:33:17;;;;;;;1.45;1.35;;;;;;;7.96;87.45;98795.53;5047944;28;20029;-71
2023/11/07 03:35:43;;;;;;;2.35;1.23;;;;;;;7.98;87.36;98798.09;5065775;28;20076;-72
2023/11/07 03:38:09;;;;;;;2.05;1.55;;;;;;;7.98;87.06;98792.91;5065657;28;20044;-72
2023/11/07 03:40:35;;;;;;;1.13;1.00;;;;;;;8.01;87.14;98803.19;5065502;28;20166;-71
2023/11/07 03:43:00;;;;;;;1.38;1.27;;;;;;;8.01;87.09;98816.09;5065746;28;20025;-72
2023/11/07 03:45:26;;;;;;;2.25;1.50;;;;;;;8.02;87.54;98821.22;5065671;28;20028;-72
2023/11/07 03:47:51;;;;;;;1.88;1.33;;;;;;;8.03;87.63;98815.19;5047510;28;20028;-72
2023/11/07 03:50:17;;;;;;;0.85;0.82;;;;;;;8.03;87.76;98814.34;5065560;28;20389;-72
2023/11/07 03:52:42;;;;;;;2.17;1.52;;;;;;;8.11;87.45;98809.84;5065429;28;20430;-73
2023/11/07 03:55:07;;;;;;;0.98;0.88;;;;;;;8.11;87.69;98806.41;5065129;28;20051;-72
2023/11/07 03:57:33;;;;;;;1.63;1.48;;;;;;;8.11;87.90;98808.97;5065246;28;20083;-71
2023/11/07 03:59:58;;;;;;;3.35;1.15;;;;;;;8.14;87.64;98814.94;5065343;28;20044;-72
2023/11/07 04:02:23;;;;;;;5.50;1.63;;;;;;;8.16;87.46;98809.72;5065312;28;20032;-71
2023/11/07 04:04:49;;;;;;;1.17;0.80;;;;;;;8.17;87.31;98812.28;5046676;28;20185;-72
2023/11/07 04:07:15;;;;;;;2.13;1.80;;;;;;;8.18;87.05;98808.78;5064894;28;20048;-71
2023/11/07 04:09:41;;;;;;;1.65;1.33;;;;;;;8.21;86.84;98807.84;5065156;28;20017;-72
2023/11/07 04:12:06;;;;;;;1.27;1.15;;;;;;;8.18;86.99;98805.34;5064975;28;20021;-72
2023/11/07 04:14:32;;;;;;;2.10;1.35;;;;;;;8.18;86.96;98821.72;5047189;28;20021;-72
2023/11/07 04:16:59;;;;;;;1.40;1.27;;;;;;;8.11;87.00;98815.00;5064982;28;20031;-72
2023/11/07 04:19:24;;;;;;;3.47;1.42;;;;;;;8.08;87.08;98811.63;5065058;28;20032;-72
2023/11/07 04:21:50;;;;;;;1.25;1.15;;;;;;;8.05;87.02;98807.41;5065035;28;20020;-72
2023/11/07 04:24:15;;;;;;;1.17;1.08;;;;;;;8.07;87.08;98818.53;5064931;28;20029;-72
2023/11/07 04:26:41;;;;;;;1.08;0.98;;;;;;;8.02;86.93;98817.81;5065102;28;20029;-72
2023/11/07 04:29:06;;;;;;;2.65;1.25;;;;;;;8.05;87.07;98821.16;5064821;28;20032;-71
2023/11/07 04:31:33;;;;;;;2.83;1.00;;;;;;;8.11;86.91;98815.00;5047003;28;20032;-72
2023/11/07 04:33:58;;;;;;;1.50;0.90;;;;;;;8.16;87.00;98820.91;5046762;28;20032;-71
2023/11/07 04:36:24;;;;;;;1.05;0.95;;;;;;;8.20;86.71;98824.25;5064606;28;20021;-72
2023/11/07 04:38:50;;;;;;;1.58;1.48;;;;;;;8.21;87.15;98827.72;5064792;28;20024;-72
2023/11/07 04:41:15;;;;;;;3.30;1.45;;;;;;;8.23;86.76;98816.44;5064593;28;20127;-71
2023/11/07 04:43:43;;;;;;;2.95;2.20;;;;;;;8.25;86.86;98811.22;5046949;28;20051;-72
2023/11/07 04:46:10;;;;;;;1.33;0.90;;;;;;;8.27;86.57;98804.28;5046720;28;20032;-72
2023/11/07 04:48:38;;;;;;;2.00;0.90;;;;;;;8.28;86.98;98822.34;5064310;28;20102;-72
2023/11/07 04:51:04;;;;;;;1.30;1.20;;;;;;;8.12;86.96;98796.03;5046698;28;20100;-71
2023/11/07 04:53:30;;;;;;;1.98;1.73;;;;;;;8.24;86.90;98814.72;5046432;28;20496;-72
2023/11/07 04:55:56;;;;;;;1.90;1.63;;;;;;;8.26;86.93;98802.59;5046479;28;20052;-72
2023/11/07 04:58:23;;;;;;;1.15;1.05;;;;;;;8.23;86.71;98800.91;5064547;28;20048;-72
2023/11/07 05:00:49;;;;;;;1.95;1.33;;;;;;;8.15;86.28;98805.44;5064518;28;20104;-71
2023/11/07 05:03:14;;;;;;;0.93;0.90;;;;;;;8.07;86.06;98805.59;5064285;28;20078;-70
2023/11/07 05:05:39;;;;;;;1.50;1.40;;;;;;;7.90;86.20;98801.72;5064495;28;20025;-72
2023/11/07 05:08:05;;;;;;;1.60;1.40;;;;;;;7.82;86.26;98808.78;5064016;28;20052;-73
2023/11/07 05:10:31;;;;;;;1.50;0.95;;;;;;;7.76;86.21;98819.25;5046411;28;20033;-71
2023/11/07 05:12:56;;;;;;;2.35;1.45;;;;;;;7.75;86.09;98822.69;5064353;28;20044;-71
2023/11/07 05:15:22;;;;;;;1.30;1.20;;;;;;;7.71;86.32;98818.50;5066363;28;20028;-71
2023/11/07 05:17:48;;;;;;;2.88;1.30;;;;;;;7.73;86.29;98824.50;5050237;28;20025;-70
2023/11/07 05:20:14;;;;;;;0.88;0.88;;;;;;;7.79;86.10;98829.53;5068225;28;20490;-71
2023/11/07 05:22:40;;;;;;;2.13;1.27;;;;;;;7.81;86.31;98833.75;5068306;28;20034;-70
2023/11/07 05:25:07;;;;;;;1.50;1.30;;;;;;;7.82;85.88;98829.44;5068102;28;20040;-71
2023/11/07 05:27:33;;;;;;;2.38;1.58;;;;;;;7.79;86.42;98829.53;5068258;28;20028;-70
2023/11/07 05:29:59;;;;;;;1.40;1.27;;;;;;;7.84;86.38;98834.59;5068009;28;20139;-69
2023/11/07 05:32:24;;;;;;;1.35;1.08;;;;;;;7.84;85.98;98832.00;5067974;28;20017;-69
2023/11/07 05:34:49;;;;;;;2.80;1.42;;;;;;;7.84;86.23;98830.28;5067827;28;20044;-72
2023/11/07 05:37:16;;;;;;;5.05;1.55;;;;;;;7.84;86.16;98825.09;5067833;28;20028;-70
2023/11/07 05:39:44;;;;;;;2.17;1.70;;;;;;;7.81;86.15;98820.00;5049785;28;20117;-71
2023/11/07 05:42:10;;;;;;;3.00;1.83;;;;;;;7.83;85.86;98825.97;5067944;28;20021;-72
2023/11/07 05:44:35;;;;;;;1.35;1.25;;;;;;;7.88;85.98;98826.72;5068064;28;20421;-71
2023/11/07 05:47:00;;;;;;;1.52;1.42;;;;;;;7.89;86.14;98832.75;5067698;28;20029;-71
2023/11/07 05:49:26;;;;;;;2.47;1.73;;;;;;;7.87;85.81;98831.94;5049575;28;20047;-71
2023/11/07 05:51:52;;;;;;;3.75;1.90;;;;;;;7.87;86.20;98829.34;5049768;28;20021;-70
2023/11/07 05:54:18;;;;;;;2.28;1.60;;;;;;;7.89;86.35;98838.75;5067857;28;20069;-71
2023/11/07 05:56:43;;;;;;;2.80;1.90;;;;;;;7.88;86.52;98839.66;5067451;28;20100;-72
2023/11/07 05:59:08;;;;;;;3.05;2.25;;;;;;;7.88;86.06;98842.22;5067419;28;20476;-72
2023/11/07 06:01:34;;;;;;;2.42;1.67;;;;;;;7.92;86.54;98841.25;5067522;28;20021;-72
2023/11/07 06:03:59;;;;;;;2.03;1.48;;;;;;;8.02;86.73;98854.00;5067341;28;20380;-72
2023/11/07 06:06:25;;;;;;;2.35;1.85;;;;;;;8.06;86.64;98856.47;5049206;28;20667;-72
2023/11/07 06:08:51;;;;;;;1.95;1.20;;;;;;;8.09;86.30;98846.94;5067391;28;20084;-71
2023/11/07 06:11:17;;;;;;;2.33;2.13;;;;;;;8.13;86.28;98854.56;5049648;28;20067;-71
2023/11/07 06:13:43;;;;;;;2.05;1.73;;;;;;;8.18;86.11;98857.06;5067469;28;20052;-72
2023/11/07 06:16:08;;;;;;;2.30;1.52;;;;;;;8.13;86.18;98852.00;5067340;28;20047;-72
2023/11/07 06:18:34;;;;;;;1.27;1.20;;;;;;;8.15;86.35;98857.13;5067291;28;20024;-73
2023/11/07 06:20:59;;;;;;;1.95;1.42;;;;;;;8.18;86.16;98860.50;5067206;28;20025;-72
2023/11/07 06:23:25;;;;;;;1.70;1.30;;;;;;;8.20;86.07;98857.88;5067337;28;20059;-73
2023/11/07 06:25:50;;;;;;;1.80;1.70;;;;;;;8.27;86.36;98859.44;5066939;28;20024;-74
2023/11/07 06:28:16;;;;;;;1.60;1.50;;;;;;;8.33;86.02;98860.16;5066910;28;20492;-72
2023/11/07 06:30:43;;;;;;;2.13;1.90;;;;;;;8.33;86.29;98865.31;5067163;28;20098;-73
2023/11/07 06:33:09;;;;;;;1.73;1.63;;;;;;;8.38;86.10;98863.50;5049173;28;20017;-71
2023/11/07 06:35:35;;;;;;;1.50;1.30;;;;;;;8.36;86.29;98855.78;5066963;28;20053;-72
2023/11/07 06:38:01;;;;;;;5.15;2.17;;;;;;;8.39;86.08;98862.59;5067011;28;20048;-72
2023/11/07 06:40:26;;;;;;;3.75;2.30;;;;;;;8.37;86.44;98869.56;5067286;28;20017;-72
2023/11/07 06:42:52;;;;;;;2.38;1.60;;;;;;;8.34;86.47;98867.88;5067114;28;20051;-72
2023/11/07 06:45:18;;;;;;;3.70;1.88;;;;;;;8.35;86.58;98861.84;5066888;28;20031;-73
2023/11/07 06:47:45;;;;;;;2.85;2.17;;;;;;;8.36;86.61;98865.25;5066963;28;20084;-72
2023/11/07 06:50:13;;;;;;;3.30;2.28;;;;;;;8.37;86.89;98866.97;5066700;28;20077;-72
2023/11/07 06:52:40;;;;;;;2.53;2.05;;;;;;;8.36;86.74;98876.47;5049077;28;20025;-73
2023/11/07 06:55:06;;;;;;;2.30;2.08;;;;;;;8.29;86.74;98862.00;5066870;28;20025;-72
2023/11/07 06:57:33;;;;;;;2.88;1.88;;;;;;;8.33;86.69;98876.53;5066884;28;20029;-73
2023/11/07 06:59:59;;;;;;;3.30;2.72;;;;;;;8.25;87.26;98876.72;5067111;28;20108;-73
2023/11/07 07:02:25;;;;;;;4.85;1.73;;;;;;;8.27;87.19;98876.69;5066817;28;20373;-73
2023/11/07 07:04:50;;;;;;;3.08;1.83;;;;;;;8.24;87.84;98877.59;5066464;28;20052;-72
2023/11/07 07:07:15;;;;;;;5.75;2.75;;;;;;;8.24;88.01;98862.06;5066250;28;20098;-73
2023/11/07 07:09:41;;;;;;;2.20;1.90;;;;;;;8.26;88.50;98875.81;5066730;28;20513;-73
2023/11/07 07:12:06;;;;;;;2.00;1.65;;;;;;;8.23;89.01;98875.91;5066401;28;20044;-72
2023/11/07 07:14:32;;;;;;;3.55;1.45;;;;;;;8.25;89.58;98875.84;5066458;28;20024;-72
2023/11/07 07:16:59;;;;;;;1.95;1.70;;;;;;;8.29;89.30;98880.91;5048500;28;20048;-72
2023/11/07 07:19:26;;;;;;;2.20;1.50;;;;;;;8.25;89.90;98881.88;5066263;28;20037;-72
2023/11/07 07:21:53;;;;;;;2.65;1.95;;;;;;;8.35;89.87;98887.69;5066300;28;20100;-73
2023/11/07 07:24:21;;;;;;;6.85;2.25;;;;;;;8.40;89.46;98887.59;5066191;28;20024;-72
2023/11/07 07:26:47;;;;;;;1.70;1.60;;;;;;;8.47;89.09;98877.91;5066259;28;20036;-72
2023/11/07 07:29:13;;;;;;;2.58;1.65;;;;;;;8.55;88.92;98886.38;5066286;28;20021;-72
2023/11/07 07:31:41;;;;;;;4.63;1.70;;;;;;;8.53;88.98;98882.97;5048149;28;20025;-73
2023/11/07 07:34:08;;;;;;;4.53;2.20;;;;;;;8.53;88.68;98888.16;5066042;28;20025;-72
2023/11/07 07:36:43;;;;;;;1.95;1.38;;;;;;;8.47;88.80;98885.69;5066055;28;20505;-72
2023/11/07 07:39:31;;;;;;;0.93;0.82;;;;;;;8.50;89.30;98898.56;5047981;28;20029;-73
2023/11/07 07:42:08;;;;;;;3.40;1.60;;;;;;;8.47;89.60;98898.59;5065902;28;20048;-72
2023/11/07 07:44:37;;;;;;;1.60;1.05;;;;;;;8.52;90.04;98904.53;5047941;28;20036;-73
2023/11/07 07:47:03;;;;;;;2.38;1.60;;;;;;;8.57;90.66;98900.13;5066023;28;20105;-73
2023/11/07 07:49:30;;;;;;;1.75;1.27;;;;;;;8.65;90.32;98895.63;5065545;28;20021;-73
2023/11/07 07:52:22;;;;;;;5.25;1.45;;;;;;;8.75;90.44;98892.81;5065909;28;20021;-73
2023/11/07 07:54:46;;;;;;;2.35;1.73;;;;;;;8.77;90.68;98903.97;5065492;28;20049;-73
2023/11/07 07:57:11;;;;;;;1.80;1.58;;;;;;;8.81;90.43;98903.00;5065778;28;20028;-72
2023/11/07 07:59:40;;;;;;;2.25;1.75;;;;;;;8.84;90.40;98905.50;5065679;28;20021;-72
2023/11/07 08:02:07;;;;;;;3.72;2.38;;;;;;;8.82;90.62;98901.28;5065476;28;20028;-73
2023/11/07 08:04:32;;;;;;;5.47;3.17;;;;;;;8.81;90.75;98903.00;5065490;28;20328;-73
2023/11/07 08:06:58;;;;;;;6.60;3.05;;;;;;;8.83;90.63;98911.59;5047414;28;20135;-72
2023/11/07 08:09:24;;;;;;;6.85;3.13;;;;;;;8.90;90.70;98912.25;5065719;28;20021;-74
2023/11/07 08:11:53;;;;;;;4.30;1.67;;;;;;;8.91;90.58;98917.38;5065648;28;20151;-72
2023/11/07 08:14:19;;;;;;;3.92;2.60;;;;;;;8.93;90.52;98912.16;5065788;28;20028;-73
2023/11/07 08:16:45;;;;;;;3.40;3.03;;;;;;;8.90;90.40;98907.94;5065462;28;20024;-72
2023/11/07 08:19:11;;;;;;;3.47;2.53;;;;;;;8.89;90.47;98916.59;5064976;28;20029;-73
2023/11/07 08:21:40;;;;;;;3.75;1.95;;;;;;;8.90;90.64;98912.25;5065287;28;20057;-72
2023/11/07 08:24:06;;;;;;;3.05;2.30;;;;;;;8.95;90.67;98919.91;5065209;28;20035;-73
2023/11/07 08:26:35;;;;;;;1.95;1.55;;;;;;;9.00;90.61;98931.00;5065230;28;20047;-73
2023/11/07 08:29:07;;;;;;;4.28;2.90;;;;;;;9.09;90.85;98933.34;5065218;28;20024;-73
2023/11/07 08:31:36;;;;;;;3.50;2.15;;;;;;;9.15;90.40;98935.75;5047234;28;20029;-74
2023/11/07 08:34:04;;;;;;;4.55;1.45;;;;;;;9.15;90.33;98938.34;5064990;28;20029;-72
2023/11/07 08:36:34;;;;;;;4.03;1.75;;;;;;;9.08;90.58;98930.78;5065102;28;20116;-73
2023/11/07 08:38:59;;;;;;;9.05;2.63;;;;;;;9.15;90.37;98942.69;5064905;28;20021;-73
2023/11/07 08:41:25;;;;;;;6.43;2.58;;;;;;;9.15;90.19;98948.72;5047159;28;20047;-73
2023/11/07 08:43:51;;;;;;;6.85;2.17;;;;;;;9.12;90.45;98948.78;5065078;28;20025;-73
2023/11/07 08:46:23;;;;;;;3.42;2.33;;;;;;;9.08;90.05;98962.72;5046964;28;20104;-73
2023/11/07 08:48:51;;;;;;;4.18;2.10;;;;;;;9.04;90.33;98964.53;5065108;28;20525;-72
2023/11/07 08:51:17;;;;;;;5.65;2.40;;;;;;;9.06;90.48;98964.47;5053306;28;20033;-73
2023/11/07 08:53:43;;;;;;;3.38;2.40;;;;;;;9.02;90.31;98963.72;5071619;28;20017;-73
2023/11/07 08:56:09;;;;;;;5.22;2.47;;;;;;;9.05;90.21;98967.97;5072178;28;20029;-74
2023/11/07 08:58:35;;;;;;;8.75;1.95;;;;;;;9.04;90.11;98961.09;5072176;28;20025;-74
2023/11/07 09:01:01;;;;;;;5.18;2.33;;;;;;;9.12;90.57;98968.66;5072267;28;20414;-73
2023/11/07 09:03:27;;;;;;;2.28;1.92;;;;;;;9.16;90.15;98971.13;5053523;28;20025;-73
2023/11/07 09:05:52;;;;;;;3.35;1.77;;;;;;;9.22;90.02;98969.28;5071504;28;20028;-74
2023/11/07 09:08:18;;;;;;;7.07;2.80;;;;;;;9.28;90.20;98975.13;5053347;28;20044;-72
2023/11/07 09:10:43;;;;;;;1.55;1.35;;;;;;;9.44;90.56;98982.50;5071443;28;20024;-72
2023/11/07 09:13:10;;;;;;;4.32;2.25;;;;;;;9.62;91.09;98977.72;5071432;28;20390;-74
2023/11/07 09:15:36;;;;;;;6.28;1.80;;;;;;;9.86;90.86;98986.53;5053511;28;20499;-72
2023/11/07 09:18:02;;;;;;;5.50;2.55;;;;;;;10.01;90.10;98987.88;5071234;28;20090;-73
2023/11/07 09:20:27;;;;;;;3.10;1.67;;;;;;;10.04;89.25;98992.09;5071622;28;20474;-72
2023/11/07 09:22:53;;;;;;;3.67;1.98;;;;;;;9.98;88.11;98989.69;5053502;28;20033;-73
2023/11/07 09:25:19;;;;;;;3.65;1.70;;;;;;;9.95;88.19;98984.59;5071265;28;20024;-72
2023/11/07 09:27:46;;;;;;;3.63;2.53;;;;;;;9.92;88.06;98985.50;5071217;28;20089;-72
2023/11/07 09:30:12;;;;;;;2.00;1.77;;;;;;;9.91;88.17;98991.59;5071267;28;20024;-74
2023/11/07 09:32:39;;;;;;;4.25;2.25;;;;;;;9.89;87.35;98995.97;5071200;28;20026;-73
2023/11/07 09:35:06;;;;;;;4.57;2.95;;;;;;;9.86;87.34;98991.72;5071056;28;20025;-73
2023/11/07 09:37:31;;;;;;;3.28;1.83;;;;;;;9.85;87.32;99000.41;5053130;28;20052;-73
2023/11/07 09:39:57;;;;;;;2.80;1.88;;;;;;;9.83;87.50;98986.63;5053234;28;20032;-72
2023/11/07 09:42:22;;;;;;;3.58;2.25;;;;;;;9.94;87.38;98993.25;5053016;28;20032;-72
2023/11/07 09:44:49;;;;;;;4.63;2.53;;;;;;;9.99;86.90;98993.97;5071309;28;20115;-72
2023/11/07 09:47:14;;;;;;;2.90;1.65;;;;;;;10.04;86.50;99005.06;5071095;28;20045;-73
2023/11/07 09:49:40;;;;;;;4.25;2.13;;;;;;;10.04;86.21;99013.69;5071097;28;20021;-73
2023/11/07 09:52:06;;;;;;;2.50;2.17;;;;;;;10.05;86.19;99011.94;5070903;28;20025;-72
2023/11/07 09:54:33;;;;;;;8.65;1.95;;;;;;;10.03;86.04;99013.75;5071323;28;20036;-72
2023/11/07 09:57:06;;;;;;;3.25;2.13;;;;;;;10.04;86.15;99020.63;5070965;28;20029;-73
2023/11/07 09:59:36;;;;;;;2.67;2.17;;;;;;;10.06;86.25;99017.97;5052691;28;20059;-73
2023/11/07 10:02:03;;;;;;;4.25;1.80;;;;;;;10.05;85.51;99017.13;5067431;28;20021;-73
2023/11/07 10:04:30;;;;;;;5.57;1.75;;;;;;;10.04;85.69;99020.63;5050022;28;20050;-71
2023/11/07 10:06:58;;;;;;;1.42;1.33;;;;;;;10.17;85.69;99024.53;5067702;28;20044;-73
2023/11/07 10:09:26;;;;;;;2.03;1.63;;;;;;;10.23;85.65;99020.94;5067554;28;20484;-72
2023/11/07 10:11:53;;;;;;;3.92;1.63;;;;;;;10.08;85.05;99014.44;5049829;28;20028;-73
2023/11/07 10:14:20;;;;;;;3.25;1.75;;;;;;;10.10;84.64;99029.94;5067699;28;20028;-73
2023/11/07 10:16:50;;;;;;;2.65;2.13;;;;;;;10.05;84.39;99030.09;5067654;28;20021;-72
2023/11/07 10:19:22;;;;;;;2.42;1.73;;;;;;;10.05;83.95;99040.47;5067295;28;20025;-72
2023/11/07 10:21:49;;;;;;;1.48;1.38;;;;;;;10.01;84.14;99037.13;5067605;28;20040;-73
2023/11/07 10:24:14;;;;;;;2.03;1.90;;;;;;;9.95;84.10;99039.91;5067638;28;20025;-73
2023/11/07 10:27:02;;;;;;;2.17;1.50;;;;;;;9.87;83.56;99040.06;5067584;28;20219;-73
2023/11/07 10:29:31;;;;;;;8.43;2.22;;;;;;;9.88;84.06;99044.38;5067257;28;20024;-73
2023/11/07 10:32:06;;;;;;;2.28;2.05;;;;;;;9.89;84.10;99045.22;5067337;28;20031;-73
2023/11/07 10:34:32;;;;;;;4.05;2.30;;;;;;;9.85;83.89;99047.06;5049332;28;20023;-73
2023/11/07 10:37:01;;;;;;;2.88;2.40;;;;;;;9.85;84.01;99039.28;5067201;28;20025;-72
2023/11/07 10:39:27;;;;;;;3.45;2.63;;;;;;;9.80;84.18;99048.94;5067154;28;20048;-73
2023/11/07 10:41:54;;;;;;;2.00;1.80;;;;;;;9.72;84.13;99040.50;5049110;28;20481;-73
2023/11/07 10:44:24;;;;;;;2.85;1.88;;;;;;;9.71;83.95;99044.00;5067129;28;20032;-73
2023/11/07 10:47:00;;;;;;;5.55;1.45;;;;;;;9.66;84.12;99041.53;5067038;28;20021;-73
2023/11/07 10:49:26;;;;;;;4.30;2.70;;;;;;;9.70;84.60;99050.06;5066837;28;20059;-73
2023/11/07 10:51:52;;;;;;;2.15;1.83;;;;;;;9.70;84.71;99050.06;5066823;28;20024;-72
2023/11/07 10:54:21;;;;;;;3.20;2.03;;;;;;;9.81;84.69;99050.63;5066894;28;20017;-73
2023/11/07 10:56:51;;;;;;;4.47;2.17;;;;;;;9.81;84.49;99054.97;5066845;28;20025;-72
2023/11/07 10:59:22;;;;;;;1.95;1.77;;;;;;;9.82;84.36;99057.53;5066735;28;20077;-72
2023/11/07 11:01:52;;;;;;;2.22;1.90;;;;;;;9.78;84.74;99045.53;5066570;28;20025;-73
2023/11/07 11:04:22;;;;;;;5.07;2.38;;;;;;;9.82;84.56;99041.09;5048762;28;20032;-73
2023/11/07 11:06:52;;;;;;;2.45;1.95;;;;;;;9.81;84.29;99053.22;5066427;28;20052;-72
2023/11/07 11:09:19;;;;;;;2.13;1.48;;;;;;;9.79;84.60;99049.84;5066536;28;20017;-72
2023/11/07 11:11:50;;;;;;;3.40;2.38;;;;;;;9.74;84.29;99044.78;5066483;28;20028;-73
2023/11/07 11:14:15;;;;;;;1.60;1.05;;;;;;;9.76;84.44;99057.69;5066210;28;20052;-73
2023/11/07 11:16:43;;;;;;;2.80;1.88;;;;;;;9.75;84.23;99064.59;5066536;28;20086;-73
2023/11/07 11:19:32;;;;;;;2.78;1.80;;;;;;;9.74;84.48;99064.66;5048372;28;20025;-72
2023/11/07 11:22:02;;;;;;;3.42;2.25;;;;;;;9.72;84.91;99061.25;5066472;28;20017;-72
2023/11/07 11:24:55;;;;;;;4.75;2.47;;;;;;;9.72;84.87;99069.00;5066321;28;20031;-72
2023/11/07 11:27:45;;;;;;;4.10;2.15;;;;;;;9.71;84.77;99064.72;5066229;28;20060;-73
2023/11/07 11:30:11;;;;;;;4.95;2.70;;;;;;;9.70;84.64;99058.69;5066192;28;20040;-73
2023/11/07 11:32:42;;;;;;;1.58;1.48;;;;;;;9.69;84.43;99074.28;5066406;28;20036;-73
2023/11/07 11:35:17;;;;;;;5.25;3.22;;;;;;;9.61;84.83;99067.56;5065908;28;20166;-72
2023/11/07 11:38:16;;;;;;;2.80;2.53;;;;;;;9.57;84.84;99067.69;5048050;28;20032;-71
2023/11/07 11:40:56;;;;;;;2.78;1.98;;;;;;;9.46;84.80;99073.97;5066267;28;20021;-73